createdAt,value
2022-11-30T00:01:28.523Z,-2.00
2022-11-30T00:03:57.387Z,-2.00
2022-11-30T00:06:26.055Z,-2.00
2022-11-30T00:08:55.355Z,-2.00
2022-11-30T00:11:25.422Z,-2.00
2022-11-30T00:13:53.226Z,-1.90
2022-11-30T00:16:20.909Z,-2.00
2022-11-30T00:18:48.244Z,-1.90
2022-11-30T00:21:16.229Z,-2.00
2022-11-30T00:23:45.945Z,-2.10
2022-11-30T00:26:19.379Z,-2.10
2022-11-30T00:28:46.663Z,-2.10
2022-11-30T00:31:16.934Z,-2.10
2022-11-30T00:33:44.860Z,-2.00
2022-11-30T00:36:21.641Z,-2.10
2022-11-30T00:38:50.847Z,-2.10
2022-11-30T00:41:20.003Z,-2.10
2022-11-30T00:43:47.856Z,-2.10
2022-11-30T00:46:15.336Z,-2.10
2022-11-30T00:48:42.684Z,-2.10
2022-11-30T00:51:12.017Z,-2.10
2022-11-30T00:53:41.198Z,-2.10
2022-11-30T00:56:09.750Z,-2.10
2022-11-30T00:58:37.254Z,-2.10
2022-11-30T01:01:04.922Z,-2.10
2022-11-30T01:03:32.376Z,-2.10
2022-11-30T01:06:09.446Z,-2.20
2022-11-30T01:08:37.084Z,-2.20
2022-11-30T01:11:16.772Z,-2.20
2022-11-30T01:13:43.992Z,-2.20
2022-11-30T01:16:19.515Z,-2.20
2022-11-30T01:18:48.527Z,-2.20
2022-11-30T01:21:20.019Z,-2.20
2022-11-30T01:23:48.292Z,-2.20
2022-11-30T01:26:19.349Z,-2.20
2022-11-30T01:28:54.731Z,-2.20
2022-11-30T01:31:24.069Z,-2.10
2022-11-30T01:33:54.441Z,-2.10
2022-11-30T01:36:25.599Z,-2.10
2022-11-30T01:38:57.047Z,-2.10
2022-11-30T01:41:29.438Z,-2.10
2022-11-30T01:44:20.347Z,-2.20
2022-11-30T01:47:09.220Z,-2.20
2022-11-30T01:49:51.656Z,-2.20
2022-11-30T01:52:40.215Z,-2.30
2022-11-30T01:55:22.239Z,-2.30
2022-11-30T01:58:13.773Z,-2.30
2022-11-30T02:00:47.497Z,-2.30
2022-11-30T02:03:47.655Z,-2.30
2022-11-30T02:06:15.695Z,-2.30
2022-11-30T02:08:43.235Z,-2.30
2022-11-30T02:11:15.429Z,-2.30
2022-11-30T02:14:28.465Z,-2.30
2022-11-30T02:17:14.145Z,-2.40
2022-11-30T02:20:02.380Z,-2.30
2022-11-30T02:23:00.838Z,-2.30
2022-11-30T02:25:54.520Z,-2.40
2022-11-30T02:29:02.339Z,-2.30
2022-11-30T02:31:58.285Z,-2.40
2022-11-30T02:34:31.581Z,-2.40
2022-11-30T02:37:01.104Z,-2.40
2022-11-30T02:39:28.241Z,-2.40
2022-11-30T02:41:55.370Z,-2.40
2022-11-30T02:44:24.037Z,-2.40
2022-11-30T02:47:14.733Z,-2.50
2022-11-30T02:49:58.906Z,-2.50
2022-11-30T02:52:30.064Z,-2.50
2022-11-30T02:55:08.593Z,-2.60
2022-11-30T02:57:36.750Z,-2.60
2022-11-30T03:00:11.095Z,-2.60
2022-11-30T03:02:39.523Z,-2.60
2022-11-30T03:05:08.412Z,-2.70
2022-11-30T03:07:36.235Z,-2.60
2022-11-30T03:10:04.805Z,-2.60
2022-11-30T03:12:32.258Z,-2.70
2022-11-30T03:14:59.622Z,-2.70
2022-11-30T03:17:27.007Z,-2.80
2022-11-30T03:19:54.330Z,-2.70
2022-11-30T03:22:21.545Z,-2.70
2022-11-30T03:24:49.169Z,-2.70
2022-11-30T03:27:16.821Z,-2.70
2022-11-30T03:29:44.198Z,-2.70
2022-11-30T03:32:11.366Z,-2.70
2022-11-30T03:34:38.489Z,-2.70
2022-11-30T03:37:05.644Z,-2.70
2022-11-30T03:39:32.838Z,-2.70
2022-11-30T03:42:00.000Z,-2.70
2022-11-30T03:44:27.188Z,-2.60
2022-11-30T03:46:54.411Z,-2.60
2022-11-30T03:49:21.600Z,-2.60
2022-11-30T03:51:48.704Z,-2.60
2022-11-30T03:54:15.828Z,-2.60
2022-11-30T03:56:43.182Z,-2.60
2022-11-30T03:59:10.453Z,-2.60
2022-11-30T04:01:37.722Z,-2.60
2022-11-30T04:04:05.161Z,-2.50
2022-11-30T04:06:32.431Z,-2.50
2022-11-30T04:08:59.853Z,-2.60
2022-11-30T04:11:28.503Z,-2.60
2022-11-30T04:13:56.214Z,-2.60
2022-11-30T04:16:23.623Z,-2.70
2022-11-30T04:18:55.316Z,-2.70
2022-11-30T04:21:26.045Z,-2.80
2022-11-30T04:23:53.601Z,-2.80
2022-11-30T04:26:21.169Z,-2.80
2022-11-30T04:28:49.282Z,-2.90
2022-11-30T04:31:17.687Z,-2.90
2022-11-30T04:33:45.869Z,-2.90
2022-11-30T04:36:20.431Z,-2.90
2022-11-30T04:38:48.611Z,-2.40
2022-11-30T04:41:17.042Z,-3.00
2022-11-30T04:43:44.461Z,-3.00
2022-11-30T04:46:12.264Z,-3.00
2022-11-30T04:48:39.406Z,-3.00
2022-11-30T04:51:09.114Z,-3.00
2022-11-30T04:53:38.164Z,-3.00
2022-11-30T04:56:10.146Z,-3.00
2022-11-30T04:58:37.984Z,-3.10
2022-11-30T05:01:05.481Z,-3.10
2022-11-30T05:03:33.055Z,-3.10
2022-11-30T05:06:00.280Z,-3.10
2022-11-30T05:08:27.564Z,-3.10
2022-11-30T05:10:55.630Z,-3.10
2022-11-30T05:13:25.195Z,-3.00
2022-11-30T05:15:52.438Z,-3.10
2022-11-30T05:18:20.083Z,-3.10
2022-11-30T05:20:49.771Z,-3.10
2022-11-30T05:23:17.891Z,-3.10
2022-11-30T05:25:46.265Z,-3.10
2022-11-30T05:28:13.807Z,-3.00
2022-11-30T05:30:43.086Z,-3.10
2022-11-30T05:33:11.053Z,-3.10
2022-11-30T05:35:39.084Z,-3.00
2022-11-30T05:38:06.938Z,-3.00
2022-11-30T05:40:34.149Z,-3.00
2022-11-30T05:43:03.673Z,-3.00
2022-11-30T05:45:31.034Z,-3.00
2022-11-30T05:47:58.150Z,-3.00
2022-11-30T05:50:25.333Z,-3.00
2022-11-30T05:52:55.069Z,-3.00
2022-11-30T05:55:24.574Z,-3.10
2022-11-30T05:57:51.720Z,-3.10
2022-11-30T06:00:20.806Z,-3.00
2022-11-30T06:02:49.543Z,-3.10
2022-11-30T06:05:17.067Z,-3.00
2022-11-30T06:07:44.387Z,-3.00
2022-11-30T06:10:12.355Z,-3.00
2022-11-30T06:12:39.577Z,-3.00
2022-11-30T06:15:07.549Z,-3.00
2022-11-30T06:17:34.917Z,-3.00
2022-11-30T06:20:02.115Z,-3.10
2022-11-30T06:22:29.304Z,-3.10
2022-11-30T06:24:56.467Z,-3.10
2022-11-30T06:27:23.659Z,-3.10
2022-11-30T06:29:51.116Z,-3.10
2022-11-30T06:32:18.426Z,-3.10
2022-11-30T06:34:49.073Z,-3.10
2022-11-30T06:37:17.187Z,-3.00
2022-11-30T06:40:13.669Z,-3.00
2022-11-30T06:42:50.361Z,-3.20
2022-11-30T06:45:17.646Z,-3.20
2022-11-30T06:47:44.775Z,-3.20
2022-11-30T06:50:13.553Z,-3.30
2022-11-30T06:52:41.026Z,-3.20
2022-11-30T06:55:08.559Z,-3.20
2022-11-30T06:57:35.889Z,-3.20
2022-11-30T07:00:04.643Z,-3.20
2022-11-30T07:02:32.205Z,-3.20
2022-11-30T07:04:59.374Z,-3.30
2022-11-30T07:07:29.650Z,-3.30
2022-11-30T07:09:57.704Z,-3.20
2022-11-30T07:12:25.991Z,-3.20
2022-11-30T07:14:53.434Z,-3.20
2022-11-30T07:17:20.909Z,-3.20
2022-11-30T07:19:48.697Z,-3.20
2022-11-30T07:22:16.255Z,-3.20
2022-11-30T07:24:43.352Z,-3.10
2022-11-30T07:27:10.765Z,-3.00
2022-11-30T07:29:37.977Z,-3.00
2022-11-30T07:32:05.332Z,-3.10
2022-11-30T07:34:32.508Z,-3.10
2022-11-30T07:36:59.789Z,-3.00
2022-11-30T07:39:26.915Z,-3.10
2022-11-30T07:41:54.027Z,-3.10
2022-11-30T07:44:21.142Z,-3.10
2022-11-30T07:46:48.469Z,-3.00
2022-11-30T07:49:15.624Z,-3.00
2022-11-30T07:51:42.839Z,-3.10
2022-11-30T07:54:10.226Z,-3.10
2022-11-30T07:56:37.438Z,-3.10
2022-11-30T07:59:04.640Z,-3.00
2022-11-30T08:01:33.554Z,-3.00
2022-11-30T08:04:01.044Z,-3.00
2022-11-30T08:06:32.557Z,-2.90
2022-11-30T08:09:03.771Z,-3.00
2022-11-30T08:11:34.366Z,-2.90
2022-11-30T08:14:04.659Z,-2.90
2022-11-30T08:16:37.271Z,-2.90
2022-11-30T08:19:05.225Z,-2.90
2022-11-30T08:21:32.392Z,-3.00
2022-11-30T08:23:59.646Z,-2.90
2022-11-30T08:26:32.110Z,-2.90
2022-11-30T08:29:01.445Z,-2.80
2022-11-30T08:31:32.767Z,-2.80
2022-11-30T08:34:06.450Z,-2.90
2022-11-30T08:36:35.109Z,-2.80
2022-11-30T08:39:05.402Z,-2.80
2022-11-30T08:41:34.269Z,-2.80
2022-11-30T08:44:02.161Z,-2.80
2022-11-30T08:49:24.724Z,-2.70
2022-11-30T08:54:47.937Z,-2.40
2022-11-30T08:57:18.668Z,-2.40
2022-11-30T08:59:46.507Z,-2.40
2022-11-30T09:02:16.593Z,-2.30
2022-11-30T09:04:43.762Z,-2.30
2022-11-30T09:07:11.242Z,-2.20
2022-11-30T09:09:38.792Z,-2.10
2022-11-30T09:12:07.783Z,-2.00
2022-11-30T09:14:34.949Z,-1.90
2022-11-30T09:17:02.265Z,-1.90
2022-11-30T09:19:29.596Z,-1.80
2022-11-30T09:21:56.771Z,-1.70
2022-11-30T09:24:23.894Z,-1.70
2022-11-30T09:26:51.014Z,-1.70
2022-11-30T09:29:18.320Z,-1.70
2022-11-30T09:31:45.657Z,-1.60
2022-11-30T09:34:13.182Z,-1.60
2022-11-30T09:36:40.421Z,-1.60
2022-11-30T09:39:11.038Z,-1.60
2022-11-30T09:42:25.620Z,-1.50
2022-11-30T09:45:19.226Z,-1.50
2022-11-30T09:48:05.766Z,-1.40
2022-11-30T09:50:43.703Z,-1.40
2022-11-30T09:53:59.567Z,-1.40
2022-11-30T09:56:33.574Z,-1.30
2022-11-30T09:59:21.588Z,-1.20
2022-11-30T10:01:55.318Z,-1.10
2022-11-30T10:04:29.852Z,-1.10
2022-11-30T10:07:37.348Z,-1.00
2022-11-30T10:10:37.695Z,-0.80
2022-11-30T10:13:47.979Z,-0.80
2022-11-30T10:16:43.527Z,-0.80
2022-11-30T10:19:25.719Z,-0.70
2022-11-30T10:22:29.604Z,-0.70
2022-11-30T10:25:23.888Z,-0.70
2022-11-30T10:27:53.418Z,-0.70
2022-11-30T10:30:26.188Z,-0.70
2022-11-30T10:32:56.623Z,-0.70
2022-11-30T10:35:39.066Z,-0.70
2022-11-30T10:38:25.743Z,-0.70
2022-11-30T10:41:17.387Z,-0.60
2022-11-30T10:44:21.655Z,-0.60
2022-11-30T10:47:22.656Z,-0.60
2022-11-30T10:49:52.500Z,-0.60
2022-11-30T10:52:34.574Z,-0.50
2022-11-30T10:55:04.961Z,-0.50
2022-11-30T10:57:33.435Z,-0.50
2022-11-30T11:00:04.971Z,-0.40
2022-11-30T11:02:51.735Z,-0.40
2022-11-30T11:05:31.776Z,-0.40
2022-11-30T11:08:07.147Z,-0.40
2022-11-30T11:10:39.418Z,-0.40
2022-11-30T11:13:15.587Z,-0.40
2022-11-30T11:16:00.644Z,-0.30
2022-11-30T11:18:33.755Z,-0.20
2022-11-30T11:21:07.060Z,0.00
2022-11-30T11:23:39.275Z,0.10
2022-11-30T11:26:17.722Z,0.10
2022-11-30T11:28:48.531Z,0.20
2022-11-30T11:31:33.574Z,0.20
2022-11-30T11:34:01.109Z,0.20
2022-11-30T11:36:34.668Z,0.10
2022-11-30T11:39:01.938Z,0.10
2022-11-30T11:41:38.834Z,0.10
2022-11-30T11:44:12.144Z,0.20
2022-11-30T11:46:58.022Z,0.20
2022-11-30T11:49:30.250Z,0.20
2022-11-30T11:52:21.376Z,0.10
2022-11-30T11:55:03.894Z,0.10
2022-11-30T11:57:58.081Z,0.10
2022-11-30T12:00:25.646Z,0.10
2022-11-30T12:03:38.498Z,0.10
2022-11-30T12:06:17.365Z,0.10
2022-11-30T12:09:00.447Z,0.10
2022-11-30T12:11:46.249Z,0.10
2022-11-30T12:14:17.373Z,0.10
2022-11-30T12:16:47.146Z,0.20
2022-11-30T12:19:31.533Z,0.20
2022-11-30T12:22:32.388Z,0.10
2022-11-30T12:25:20.361Z,0.20
2022-11-30T12:28:13.768Z,0.20
2022-11-30T12:30:57.784Z,0.30
2022-11-30T12:33:36.800Z,0.30
2022-11-30T12:36:13.790Z,0.40
2022-11-30T12:39:15.259Z,0.40
2022-11-30T12:41:59.507Z,0.40
2022-11-30T12:45:04.042Z,0.30
2022-11-30T12:47:47.493Z,0.30
2022-11-30T12:50:40.287Z,0.20
2022-11-30T12:53:32.285Z,0.10
2022-11-30T12:56:46.443Z,0.10
2022-11-30T12:59:32.466Z,0.10
2022-11-30T13:02:45.410Z,0.20
2022-11-30T13:05:32.882Z,0.20
2022-11-30T13:08:24.152Z,0.20
2022-11-30T13:11:02.344Z,0.10
2022-11-30T13:13:33.747Z,0.10
2022-11-30T13:16:07.934Z,0.20
2022-11-30T13:18:36.442Z,0.10
2022-11-30T13:21:37.500Z,0.20
2022-11-30T13:24:07.524Z,0.10
2022-11-30T13:27:06.750Z,0.20
2022-11-30T13:29:42.574Z,0.20
2022-11-30T13:32:48.684Z,0.20
2022-11-30T13:35:29.641Z,0.20
2022-11-30T13:38:35.361Z,0.20
2022-11-30T13:41:05.668Z,0.20
2022-11-30T13:43:51.384Z,0.20
2022-11-30T13:46:22.988Z,0.20
2022-11-30T13:49:31.989Z,0.30
2022-11-30T13:52:21.957Z,0.30
2022-11-30T13:54:52.026Z,0.20
2022-11-30T13:57:25.277Z,0.20
2022-11-30T14:00:00.706Z,0.30
2022-11-30T14:02:33.811Z,0.20
2022-11-30T14:05:19.255Z,0.20
2022-11-30T14:07:52.655Z,0.20
2022-11-30T14:10:33.036Z,0.20
2022-11-30T14:13:09.203Z,0.20
2022-11-30T14:15:39.379Z,0.20
2022-11-30T14:18:09.382Z,0.20
2022-11-30T14:21:01.757Z,0.20
2022-11-30T14:23:40.451Z,0.20
2022-11-30T14:26:21.081Z,0.20
2022-11-30T14:29:16.352Z,0.20
2022-11-30T14:31:58.300Z,0.10
2022-11-30T14:34:31.637Z,0.10
2022-11-30T14:37:13.822Z,0.10
2022-11-30T14:39:45.810Z,0.00
2022-11-30T14:42:30.398Z,0.00
2022-11-30T14:44:58.381Z,0.00
2022-11-30T14:47:35.316Z,0.00
2022-11-30T14:50:05.941Z,0.00
2022-11-30T14:53:06.244Z,-0.10
2022-11-30T14:55:53.079Z,-0.10
2022-11-30T14:58:51.490Z,-0.10
2022-11-30T15:01:23.849Z,-0.20
2022-11-30T15:03:55.492Z,-0.20
2022-11-30T15:06:31.293Z,-0.20
2022-11-30T15:09:01.839Z,-0.30
2022-11-30T15:11:29.706Z,-0.30
2022-11-30T15:14:09.915Z,-0.30
2022-11-30T15:16:37.700Z,-0.30
2022-11-30T15:19:26.059Z,-0.40
2022-11-30T15:21:55.875Z,-0.40
2022-11-30T15:24:23.460Z,-0.40
2022-11-30T15:27:11.179Z,-0.40
2022-11-30T15:29:46.762Z,-0.40
2022-11-30T15:32:24.272Z,-0.50
2022-11-30T15:34:58.458Z,-0.50
2022-11-30T15:37:32.465Z,-0.40
2022-11-30T15:40:04.054Z,-0.50
2022-11-30T15:42:37.943Z,-0.50
2022-11-30T15:45:20.731Z,-0.50
2022-11-30T15:47:56.504Z,-0.50
2022-11-30T15:50:37.123Z,-0.40
2022-11-30T15:53:29.388Z,-0.50
2022-11-30T15:56:01.920Z,-0.50
2022-11-30T15:58:59.401Z,-0.50
2022-11-30T16:01:27.672Z,-0.50
2022-11-30T16:04:06.267Z,-0.60
2022-11-30T16:06:46.981Z,-0.50
2022-11-30T16:09:30.200Z,-0.50
2022-11-30T16:12:00.611Z,-0.60
2022-11-30T16:14:28.475Z,-0.60
2022-11-30T16:16:56.297Z,-0.60
2022-11-30T16:19:23.595Z,-0.60
2022-11-30T16:21:51.011Z,-0.60
2022-11-30T16:24:18.184Z,-0.50
2022-11-30T16:26:52.853Z,-0.50
2022-11-30T16:29:20.620Z,-0.60
2022-11-30T16:31:47.905Z,-0.60
2022-11-30T16:34:15.052Z,-0.60
2022-11-30T16:36:42.199Z,-0.60
2022-11-30T16:39:12.944Z,-0.60
2022-11-30T16:41:40.410Z,-0.60
2022-11-30T16:44:13.863Z,-0.60
2022-11-30T16:46:41.085Z,-0.60
2022-11-30T16:49:08.341Z,-0.60
2022-11-30T16:51:35.889Z,-0.60
2022-11-30T16:54:04.445Z,-0.60
2022-11-30T16:56:31.665Z,-0.60
2022-11-30T16:58:58.891Z,-0.60
2022-11-30T17:01:49.859Z,-0.60
2022-11-30T17:04:23.544Z,-0.60
2022-11-30T17:06:53.771Z,-0.60
2022-11-30T17:09:24.710Z,-0.70
2022-11-30T17:11:52.068Z,-0.70
2022-11-30T17:14:20.823Z,-0.60
2022-11-30T17:16:48.113Z,-0.70
2022-11-30T17:19:15.494Z,-0.60
2022-11-30T17:21:43.281Z,-0.60
2022-11-30T17:24:11.221Z,-0.70
2022-11-30T17:26:38.367Z,-0.60
2022-11-30T17:29:06.200Z,-0.70
2022-11-30T17:31:33.796Z,-0.60
2022-11-30T17:34:01.862Z,-0.60
2022-11-30T17:36:29.022Z,-0.60
2022-11-30T17:38:56.141Z,-0.60
2022-11-30T17:41:23.335Z,-0.60
2022-11-30T17:43:50.515Z,-0.60
2022-11-30T17:46:18.865Z,-0.60
2022-11-30T17:48:46.414Z,-0.70
2022-11-30T17:51:14.338Z,-0.70
2022-11-30T17:53:42.907Z,-0.70
2022-11-30T17:56:16.801Z,-0.60
2022-11-30T17:58:45.991Z,-0.70
2022-11-30T18:01:22.804Z,-0.70
2022-11-30T18:03:51.807Z,-0.70
2022-11-30T18:06:20.301Z,-0.70
2022-11-30T18:08:48.595Z,-0.60
2022-11-30T18:11:19.940Z,-0.60
2022-11-30T18:13:48.725Z,-0.60
2022-11-30T18:16:26.597Z,-0.60
2022-11-30T18:18:55.477Z,-0.60
2022-11-30T18:21:24.704Z,-0.60
2022-11-30T18:23:52.473Z,-0.70
2022-11-30T18:26:23.629Z,-0.70
2022-11-30T18:28:59.941Z,-0.70
2022-11-30T18:31:29.771Z,-0.70
2022-11-30T18:34:00.700Z,-0.70
2022-11-30T18:36:29.201Z,-0.70
2022-11-30T18:38:56.687Z,-0.80
2022-11-30T18:41:24.373Z,-0.70
2022-11-30T18:43:54.995Z,-0.70
2022-11-30T18:46:22.467Z,-0.70
2022-11-30T18:48:53.295Z,-0.80
2022-11-30T18:51:26.507Z,-0.80
2022-11-30T18:54:07.171Z,-0.80
2022-11-30T18:56:38.200Z,-0.80
2022-11-30T18:59:13.611Z,-0.80
2022-11-30T19:01:41.343Z,-0.80
2022-11-30T19:04:11.077Z,-0.80
2022-11-30T19:06:40.927Z,-0.70
2022-11-30T19:09:13.066Z,-0.80
2022-11-30T19:11:42.987Z,-0.80
2022-11-30T19:14:14.728Z,-0.80
2022-11-30T19:16:43.212Z,-0.80
2022-11-30T19:19:14.266Z,-0.70
2022-11-30T19:21:44.379Z,-0.70
2022-11-30T19:24:11.576Z,-0.80
2022-11-30T19:26:39.214Z,-0.80
2022-11-30T19:29:07.467Z,-0.80
2022-11-30T19:31:36.099Z,-0.80
2022-11-30T19:34:06.570Z,-0.70
2022-11-30T19:36:36.978Z,-0.80
2022-11-30T19:39:04.199Z,-0.80
2022-11-30T19:41:37.241Z,-0.80
2022-11-30T19:44:05.563Z,-0.70
2022-11-30T19:46:33.542Z,-0.70
2022-11-30T19:49:01.757Z,-0.70
2022-11-30T19:51:31.407Z,-0.70
2022-11-30T19:53:59.515Z,-0.70
2022-11-30T19:56:30.339Z,-0.70
2022-11-30T19:59:04.016Z,-0.70
2022-11-30T20:01:34.131Z,-0.70
2022-11-30T20:04:01.719Z,-0.80
2022-11-30T20:06:36.223Z,-0.80
2022-11-30T20:09:06.884Z,-0.80
2022-11-30T20:11:35.031Z,-0.70
2022-11-30T20:14:02.775Z,-0.70
2022-11-30T20:16:30.169Z,-0.70
2022-11-30T20:19:01.471Z,-0.70
2022-11-30T20:21:33.063Z,-0.70
2022-11-30T20:24:03.983Z,-0.80
2022-11-30T20:26:36.546Z,-0.80
2022-11-30T20:29:06.929Z,-0.80
2022-11-30T20:31:36.444Z,-0.80
2022-11-30T20:34:04.806Z,-0.80
2022-11-30T20:36:32.165Z,-0.80
2022-11-30T20:38:59.913Z,-0.80
2022-11-30T20:41:27.265Z,-0.70
2022-11-30T20:43:55.629Z,-0.80
2022-11-30T20:46:29.939Z,-0.80
2022-11-30T20:48:59.125Z,-0.70
2022-11-30T20:51:33.901Z,-0.70
2022-11-30T20:54:05.882Z,-0.80
2022-11-30T20:56:35.422Z,-0.80
2022-11-30T20:59:05.366Z,-0.80
2022-11-30T21:01:33.381Z,-0.80
2022-11-30T21:04:01.389Z,-0.80
2022-11-30T21:06:30.411Z,-0.80
2022-11-30T21:08:58.972Z,-0.80
2022-11-30T21:11:27.791Z,-0.80
2022-11-30T21:13:55.602Z,-0.70
2022-11-30T21:16:28.134Z,-0.70
2022-11-30T21:18:59.437Z,-0.80
2022-11-30T21:21:34.206Z,-0.80
2022-11-30T21:24:08.891Z,-0.80
2022-11-30T21:26:39.837Z,-0.80
2022-11-30T21:29:15.830Z,-0.70
2022-11-30T21:31:44.661Z,-0.70
2022-11-30T21:34:12.538Z,-0.70
2022-11-30T21:36:40.321Z,-0.80
2022-11-30T21:39:09.220Z,-0.80
2022-11-30T21:41:39.518Z,-0.70
2022-11-30T21:44:12.282Z,-0.70
2022-11-30T21:46:39.613Z,-0.80
2022-11-30T21:49:07.585Z,-0.80
2022-11-30T21:51:34.946Z,-0.80
2022-11-30T21:54:05.914Z,-0.80
2022-11-30T21:56:37.207Z,-0.70
2022-11-30T21:59:08.220Z,-0.80
2022-11-30T22:01:39.829Z,-0.70
2022-11-30T22:04:10.373Z,-0.80
2022-11-30T22:06:39.849Z,-0.80
2022-11-30T22:09:13.050Z,-0.80
2022-11-30T22:11:43.127Z,-0.80
2022-11-30T22:14:16.488Z,-0.80
2022-11-30T22:16:44.574Z,-0.70
2022-11-30T22:19:11.765Z,-0.80
2022-11-30T22:21:39.192Z,-0.80
2022-11-30T22:24:10.928Z,-0.90
2022-11-30T22:26:44.559Z,-0.80
2022-11-30T22:29:15.618Z,-0.80
2022-11-30T22:31:46.472Z,-0.80
2022-11-30T22:34:14.323Z,-0.90
2022-11-30T22:36:44.258Z,-0.90
2022-11-30T22:39:15.048Z,-0.90
2022-11-30T22:41:45.259Z,-0.90
2022-11-30T22:44:15.904Z,-0.90
2022-11-30T22:46:44.516Z,-0.90
2022-11-30T22:49:20.789Z,-0.80
2022-11-30T22:51:50.196Z,-0.80
2022-11-30T22:54:17.698Z,-0.90
2022-11-30T22:56:45.417Z,-0.90
2022-11-30T22:59:14.058Z,-0.90
2022-11-30T23:01:47.331Z,-0.90
2022-11-30T23:04:21.481Z,-0.90
2022-11-30T23:06:50.091Z,-0.90
2022-11-30T23:09:23.456Z,-0.80
2022-11-30T23:11:52.095Z,-0.90
2022-11-30T23:14:19.427Z,-0.80
2022-11-30T23:16:46.921Z,-0.80
2022-11-30T23:19:15.400Z,-0.80
2022-11-30T23:21:44.229Z,-0.80
2022-11-30T23:24:17.089Z,-0.90
2022-11-30T23:26:44.541Z,-0.90
2022-11-30T23:29:14.963Z,-0.90
2022-11-30T23:31:44.457Z,-0.80
2022-11-30T23:34:17.717Z,-0.90
2022-11-30T23:36:45.558Z,-0.80
2022-11-30T23:39:17.809Z,-0.80
2022-11-30T23:41:45.714Z,-0.90
2022-11-30T23:44:13.901Z,-0.80
2022-11-30T23:46:41.375Z,-0.90
2022-11-30T23:49:09.228Z,-0.80
2022-11-30T23:51:36.685Z,-0.80
2022-11-30T23:54:04.490Z,-0.90
2022-11-30T23:56:31.621Z,-0.90
2022-11-30T23:58:58.784Z,-0.90
